Warning: Javascript must be enabled to use all the features on this page!


Page Loading - Please Wait...

Click to hideNews Bulletins

Peak Streamflow for the Nation

USGS 14308990 COW CREEK ABV GALESVILLE RES, NR AZALEA, OR.

Douglas County, Oregon
Hydrologic Unit Code 17100302
Latitude  42°49'24", Longitude 123°07'29" NAD27
Drainage area 64.7  square miles
Gage datum 1,900 feet above NGVD29
Output formats
Table
Graph
Tab-separated file
peakfq (watstore) format
Reselect output format
Water
Year
Date Gage
Height
(feet)
Stream-
flow
(cfs)
1986 1986-02-18 6.342 2,240
1987 1987-02-02 6.89 2,610
1988 1987-12-10 4.68 1,280
1989 1989-01-10 6.24 2,230
1990 1990-01-08 4.53 1,120
1991 1991-03-03 6.99 2,860
1992 1991-12-06 3.25 556
1993 1993-01-20 8.48 3,560
1994 1993-12-08 4.02 795
1995 1995-01-09 12.04 6,980
1996 1995-12-12 8.78 3,820
1997 1997-01-01 11.25 6,130
1998 1998-02-21 6.83 2,400
1999 1999-02-28 7.54 2,650
2000 2000-01-14 7.31 2,480
2001 2000-12-22 1.51 141
2002 2001-12-14 5.63 1,460
2003 2002-12-30 6.56 1,990
2004 2003-12-14 4.80 1,070
2005 2004-12-09 4.26 861
2006 2005-12-30 6.32 1,830
2007 2006-12-26 6.01 1,660
2008 2008-01-04 5.82 1,560
2009 2008-12-29 5.67 1,480
2010 2010-01-01 4.77 1,060
2011 2010-12-29 5.85 1,570
2012 2012-03-30 7.56 2,620
2013 2012-12-02 10.61 5,290
2014 2014-02-14 4.53 966
2015 2015-02-06 10.60 5,280
2016 2016-01-17 8.61 3,420
2017 2016-12-15 10.79 5,480
2018 2018-01-24 3.02 444
2019 2019-02-25 7.09 2,300
2020 2020-01-26 4.09 800
2021 2021-01-31   1,020
?
  Peak Gage-Height Qualification Codes.